sensor_id;sensor_type;location;lat;lon;timestamp;P1;durP1;ratioP1;P2;durP2;ratioP2
65033;SDS011;51601;51.356;12.458;2023-01-19T00:03:13;18.77;;;7.30;;
65033;SDS011;51601;51.356;12.458;2023-01-19T00:07:34;19.95;;;7.93;;
65033;SDS011;51601;51.356;12.458;2023-01-19T00:11:52;22.83;;;8.25;;
65033;SDS011;51601;51.356;12.458;2023-01-19T00:16:12;18.58;;;8.48;;
65033;SDS011;51601;51.356;12.458;2023-01-19T00:20:31;13.87;;;5.10;;
65033;SDS011;51601;51.356;12.458;2023-01-19T00:24:56;23.55;;;8.45;;
65033;SDS011;51601;51.356;12.458;2023-01-19T00:29:14;15.52;;;7.32;;
65033;SDS011;51601;51.356;12.458;2023-01-19T00:33:33;13.23;;;5.60;;
65033;SDS011;51601;51.356;12.458;2023-01-19T00:37:53;12.43;;;5.40;;
65033;SDS011;51601;51.356;12.458;2023-01-19T00:42:14;8.27;;;3.50;;
65033;SDS011;51601;51.356;12.458;2023-01-19T00:46:50;11.27;;;4.90;;
65033;SDS011;51601;51.356;12.458;2023-01-19T00:51:10;21.13;;;8.00;;
65033;SDS011;51601;51.356;12.458;2023-01-19T00:55:30;13.43;;;5.40;;
65033;SDS011;51601;51.356;12.458;2023-01-19T00:59:48;12.45;;;4.72;;
65033;SDS011;51601;51.356;12.458;2023-01-19T01:04:06;10.50;;;4.47;;
65033;SDS011;51601;51.356;12.458;2023-01-19T01:08:25;11.98;;;4.88;;
65033;SDS011;51601;51.356;12.458;2023-01-19T01:12:45;16.90;;;5.88;;
65033;SDS011;51601;51.356;12.458;2023-01-19T01:17:24;14.77;;;5.47;;
65033;SDS011;51601;51.356;12.458;2023-01-19T01:21:43;12.38;;;5.40;;
65033;SDS011;51601;51.356;12.458;2023-01-19T01:26:02;16.02;;;6.30;;
65033;SDS011;51601;51.356;12.458;2023-01-19T01:30:22;14.20;;;5.47;;
65033;SDS011;51601;51.356;12.458;2023-01-19T01:34:40;17.13;;;6.72;;
65033;SDS011;51601;51.356;12.458;2023-01-19T01:38:58;16.38;;;6.57;;
65033;SDS011;51601;51.356;12.458;2023-01-19T01:43:18;21.10;;;6.68;;
65033;SDS011;51601;51.356;12.458;2023-01-19T01:47:38;13.03;;;5.23;;
65033;SDS011;51601;51.356;12.458;2023-01-19T01:52:01;15.18;;;5.75;;
65033;SDS011;51601;51.356;12.458;2023-01-19T01:56:21;8.38;;;3.55;;
65033;SDS011;51601;51.356;12.458;2023-01-19T02:00:45;13.23;;;4.60;;
65033;SDS011;51601;51.356;12.458;2023-01-19T02:05:21;8.57;;;3.08;;
65033;SDS011;51601;51.356;12.458;2023-01-19T02:09:44;12.38;;;4.93;;
65033;SDS011;51601;51.356;12.458;2023-01-19T02:14:21;7.93;;;3.47;;
65033;SDS011;51601;51.356;12.458;2023-01-19T02:18:40;10.90;;;4.00;;
65033;SDS011;51601;51.356;12.458;2023-01-19T02:23:00;9.98;;;3.30;;
65033;SDS011;51601;51.356;12.458;2023-01-19T02:27:22;10.35;;;3.22;;
65033;SDS011;51601;51.356;12.458;2023-01-19T02:31:42;12.93;;;4.20;;
65033;SDS011;51601;51.356;12.458;2023-01-19T02:36:00;8.35;;;3.97;;
65033;SDS011;51601;51.356;12.458;2023-01-19T02:40:18;9.50;;;3.63;;
65033;SDS011;51601;51.356;12.458;2023-01-19T02:44:47;12.20;;;4.37;;
65033;SDS011;51601;51.356;12.458;2023-01-19T02:49:14;15.13;;;5.93;;
65033;SDS011;51601;51.356;12.458;2023-01-19T02:53:45;14.25;;;4.63;;
65033;SDS011;51601;51.356;12.458;2023-01-19T02:58:18;4.80;;;2.13;;
65033;SDS011;51601;51.356;12.458;2023-01-19T03:02:48;7.75;;;3.20;;
65033;SDS011;51601;51.356;12.458;2023-01-19T03:07:25;7.97;;;2.30;;
65033;SDS011;51601;51.356;12.458;2023-01-19T03:11:58;11.32;;;3.60;;
65033;SDS011;51601;51.356;12.458;2023-01-19T03:16:28;6.60;;;2.40;;
65033;SDS011;51601;51.356;12.458;2023-01-19T03:20:59;10.63;;;3.80;;
65033;SDS011;51601;51.356;12.458;2023-01-19T03:25:28;8.35;;;3.22;;
65033;SDS011;51601;51.356;12.458;2023-01-19T03:29:58;6.23;;;2.83;;
65033;SDS011;51601;51.356;12.458;2023-01-19T03:34:28;7.20;;;2.60;;
65033;SDS011;51601;51.356;12.458;2023-01-19T03:38:55;8.38;;;3.55;;
65033;SDS011;51601;51.356;12.458;2023-01-19T03:43:22;8.13;;;3.03;;
65033;SDS011;51601;51.356;12.458;2023-01-19T03:47:48;6.20;;;2.30;;
65033;SDS011;51601;51.356;12.458;2023-01-19T03:52:12;5.20;;;2.63;;
65033;SDS011;51601;51.356;12.458;2023-01-19T03:56:37;7.53;;;3.03;;
65033;SDS011;51601;51.356;12.458;2023-01-19T04:01:01;10.17;;;3.63;;
65033;SDS011;51601;51.356;12.458;2023-01-19T04:05:26;10.10;;;4.05;;
65033;SDS011;51601;51.356;12.458;2023-01-19T04:09:50;7.40;;;2.60;;
65033;SDS011;51601;51.356;12.458;2023-01-19T04:14:25;8.73;;;3.40;;
65033;SDS011;51601;51.356;12.458;2023-01-19T04:18:50;6.15;;;2.53;;
65033;SDS011;51601;51.356;12.458;2023-01-19T04:23:14;8.05;;;2.60;;
65033;SDS011;51601;51.356;12.458;2023-01-19T04:27:38;7.73;;;2.80;;
65033;SDS011;51601;51.356;12.458;2023-01-19T04:32:04;11.15;;;3.50;;
65033;SDS011;51601;51.356;12.458;2023-01-19T04:36:28;6.78;;;2.20;;
65033;SDS011;51601;51.356;12.458;2023-01-19T04:40:52;6.75;;;3.03;;
65033;SDS011;51601;51.356;12.458;2023-01-19T04:45:17;8.57;;;2.87;;
65033;SDS011;51601;51.356;12.458;2023-01-19T04:49:42;9.20;;;2.65;;
65033;SDS011;51601;51.356;12.458;2023-01-19T04:54:06;12.50;;;4.78;;
65033;SDS011;51601;51.356;12.458;2023-01-19T04:58:31;10.77;;;4.30;;
65033;SDS011;51601;51.356;12.458;2023-01-19T05:02:55;9.95;;;3.92;;
65033;SDS011;51601;51.356;12.458;2023-01-19T05:07:21;12.75;;;5.60;;
65033;SDS011;51601;51.356;12.458;2023-01-19T05:11:45;10.83;;;5.00;;
65033;SDS011;51601;51.356;12.458;2023-01-19T05:16:08;12.40;;;4.80;;
65033;SDS011;51601;51.356;12.458;2023-01-19T05:20:35;14.75;;;5.40;;
65033;SDS011;51601;51.356;12.458;2023-01-19T05:25:00;11.77;;;4.88;;
65033;SDS011;51601;51.356;12.458;2023-01-19T05:29:24;10.50;;;4.53;;
65033;SDS011;51601;51.356;12.458;2023-01-19T05:33:48;8.88;;;3.65;;
65033;SDS011;51601;51.356;12.458;2023-01-19T05:38:12;13.45;;;5.97;;
65033;SDS011;51601;51.356;12.458;2023-01-19T05:42:41;8.70;;;4.03;;
65033;SDS011;51601;51.356;12.458;2023-01-19T05:47:05;11.07;;;4.47;;
65033;SDS011;51601;51.356;12.458;2023-01-19T05:51:29;13.57;;;4.68;;
65033;SDS011;51601;51.356;12.458;2023-01-19T05:55:59;13.27;;;5.13;;
65033;SDS011;51601;51.356;12.458;2023-01-19T06:00:25;9.48;;;4.47;;
65033;SDS011;51601;51.356;12.458;2023-01-19T06:04:50;14.90;;;4.78;;
65033;SDS011;51601;51.356;12.458;2023-01-19T06:09:14;8.15;;;4.20;;
65033;SDS011;51601;51.356;12.458;2023-01-19T06:13:38;12.33;;;5.13;;
65033;SDS011;51601;51.356;12.458;2023-01-19T06:18:04;14.32;;;6.07;;
65033;SDS011;51601;51.356;12.458;2023-01-19T06:22:28;15.95;;;6.53;;
65033;SDS011;51601;51.356;12.458;2023-01-19T06:26:52;13.50;;;5.17;;
65033;SDS011;51601;51.356;12.458;2023-01-19T06:31:16;15.48;;;5.97;;
65033;SDS011;51601;51.356;12.458;2023-01-19T06:35:42;13.63;;;6.50;;
65033;SDS011;51601;51.356;12.458;2023-01-19T06:40:07;16.53;;;6.77;;
65033;SDS011;51601;51.356;12.458;2023-01-19T06:44:35;14.38;;;7.07;;
65033;SDS011;51601;51.356;12.458;2023-01-19T06:48:59;16.13;;;6.50;;
65033;SDS011;51601;51.356;12.458;2023-01-19T06:53:24;13.80;;;5.25;;
65033;SDS011;51601;51.356;12.458;2023-01-19T06:57:54;11.63;;;5.37;;
65033;SDS011;51601;51.356;12.458;2023-01-19T07:02:20;13.90;;;5.78;;
65033;SDS011;51601;51.356;12.458;2023-01-19T07:06:49;10.75;;;5.28;;
65033;SDS011;51601;51.356;12.458;2023-01-19T07:11:14;12.47;;;5.13;;
65033;SDS011;51601;51.356;12.458;2023-01-19T07:15:50;12.38;;;5.70;;
65033;SDS011;51601;51.356;12.458;2023-01-19T07:20:15;9.73;;;4.78;;
65033;SDS011;51601;51.356;12.458;2023-01-19T07:24:40;9.57;;;4.67;;
65033;SDS011;51601;51.356;12.458;2023-01-19T07:29:06;16.45;;;7.03;;
65033;SDS011;51601;51.356;12.458;2023-01-19T07:33:29;16.40;;;6.45;;
65033;SDS011;51601;51.356;12.458;2023-01-19T07:37:54;9.80;;;4.30;;
65033;SDS011;51601;51.356;12.458;2023-01-19T07:42:18;16.97;;;7.23;;
65033;SDS011;51601;51.356;12.458;2023-01-19T07:46:44;14.15;;;6.45;;
65033;SDS011;51601;51.356;12.458;2023-01-19T07:51:07;10.27;;;5.13;;
65033;SDS011;51601;51.356;12.458;2023-01-19T07:55:34;14.67;;;7.07;;
65033;SDS011;51601;51.356;12.458;2023-01-19T07:59:58;14.75;;;7.40;;
65033;SDS011;51601;51.356;12.458;2023-01-19T08:04:23;17.88;;;7.70;;
65033;SDS011;51601;51.356;12.458;2023-01-19T08:08:47;19.50;;;8.77;;
65033;SDS011;51601;51.356;12.458;2023-01-19T08:13:12;22.85;;;9.85;;
65033;SDS011;51601;51.356;12.458;2023-01-19T08:17:36;13.68;;;5.32;;
65033;SDS011;51601;51.356;12.458;2023-01-19T08:22:01;17.85;;;8.80;;
65033;SDS011;51601;51.356;12.458;2023-01-19T08:26:26;14.67;;;7.87;;
65033;SDS011;51601;51.356;12.458;2023-01-19T08:30:52;12.32;;;5.82;;
65033;SDS011;51601;51.356;12.458;2023-01-19T08:35:16;15.35;;;7.22;;
65033;SDS011;51601;51.356;12.458;2023-01-19T08:39:42;18.27;;;7.77;;
65033;SDS011;51601;51.356;12.458;2023-01-19T08:44:06;15.70;;;7.45;;
65033;SDS011;51601;51.356;12.458;2023-01-19T08:48:30;13.90;;;7.03;;
65033;SDS011;51601;51.356;12.458;2023-01-19T08:52:54;16.43;;;7.67;;
65033;SDS011;51601;51.356;12.458;2023-01-19T08:57:20;11.30;;;5.07;;
65033;SDS011;51601;51.356;12.458;2023-01-19T09:01:44;12.63;;;5.97;;
65033;SDS011;51601;51.356;12.458;2023-01-19T09:06:10;11.73;;;5.47;;
65033;SDS011;51601;51.356;12.458;2023-01-19T09:10:35;11.70;;;4.73;;
65033;SDS011;51601;51.356;12.458;2023-01-19T09:15:02;12.27;;;5.70;;
65033;SDS011;51601;51.356;12.458;2023-01-19T09:19:26;11.40;;;5.75;;
65033;SDS011;51601;51.356;12.458;2023-01-19T09:23:54;14.70;;;5.67;;
65033;SDS011;51601;51.356;12.458;2023-01-19T09:28:18;13.70;;;6.65;;
65033;SDS011;51601;51.356;12.458;2023-01-19T09:32:44;17.67;;;5.15;;
65033;SDS011;51601;51.356;12.458;2023-01-19T09:37:08;13.87;;;5.93;;
65033;SDS011;51601;51.356;12.458;2023-01-19T09:41:32;11.82;;;5.70;;
65033;SDS011;51601;51.356;12.458;2023-01-19T09:46:00;13.70;;;5.57;;
65033;SDS011;51601;51.356;12.458;2023-01-19T09:50:27;11.48;;;5.15;;
65033;SDS011;51601;51.356;12.458;2023-01-19T09:54:57;13.70;;;4.60;;
65033;SDS011;51601;51.356;12.458;2023-01-19T09:59:22;14.05;;;6.22;;
65033;SDS011;51601;51.356;12.458;2023-01-19T10:03:47;12.95;;;5.05;;
65033;SDS011;51601;51.356;12.458;2023-01-19T10:08:19;16.27;;;7.27;;
65033;SDS011;51601;51.356;12.458;2023-01-19T10:12:55;11.68;;;5.63;;
65033;SDS011;51601;51.356;12.458;2023-01-19T10:17:30;13.77;;;6.03;;
65033;SDS011;51601;51.356;12.458;2023-01-19T10:22:06;12.03;;;5.63;;
65033;SDS011;51601;51.356;12.458;2023-01-19T10:26:44;15.30;;;8.00;;
65033;SDS011;51601;51.356;12.458;2023-01-19T10:31:10;17.42;;;8.40;;
65033;SDS011;51601;51.356;12.458;2023-01-19T10:35:35;15.77;;;6.90;;
65033;SDS011;51601;51.356;12.458;2023-01-19T10:40:00;13.93;;;6.90;;
65033;SDS011;51601;51.356;12.458;2023-01-19T10:44:37;12.25;;;5.53;;
65033;SDS011;51601;51.356;12.458;2023-01-19T10:49:02;12.38;;;6.18;;
65033;SDS011;51601;51.356;12.458;2023-01-19T10:53:26;11.03;;;5.47;;
65033;SDS011;51601;51.356;12.458;2023-01-19T10:57:50;14.95;;;8.07;;
65033;SDS011;51601;51.356;12.458;2023-01-19T11:02:17;11.98;;;5.40;;
65033;SDS011;51601;51.356;12.458;2023-01-19T11:06:43;13.17;;;6.03;;
65033;SDS011;51601;51.356;12.458;2023-01-19T11:11:07;10.65;;;4.82;;
65033;SDS011;51601;51.356;12.458;2023-01-19T11:15:33;12.73;;;6.13;;
65033;SDS011;51601;51.356;12.458;2023-01-19T11:20:05;14.18;;;6.22;;
65033;SDS011;51601;51.356;12.458;2023-01-19T11:24:40;10.70;;;4.83;;
65033;SDS011;51601;51.356;12.458;2023-01-19T11:29:11;12.80;;;5.20;;
65033;SDS011;51601;51.356;12.458;2023-01-19T11:33:41;13.15;;;6.18;;
65033;SDS011;51601;51.356;12.458;2023-01-19T11:38:17;10.87;;;5.10;;
65033;SDS011;51601;51.356;12.458;2023-01-19T11:42:44;12.20;;;5.70;;
65033;SDS011;51601;51.356;12.458;2023-01-19T11:47:10;14.55;;;6.38;;
65033;SDS011;51601;51.356;12.458;2023-01-19T11:51:38;10.20;;;4.07;;
65033;SDS011;51601;51.356;12.458;2023-01-19T11:56:12;13.65;;;5.78;;
65033;SDS011;51601;51.356;12.458;2023-01-19T12:00:39;12.00;;;5.50;;
65033;SDS011;51601;51.356;12.458;2023-01-19T12:05:08;15.60;;;6.88;;
65033;SDS011;51601;51.356;12.458;2023-01-19T12:09:38;11.27;;;5.53;;
65033;SDS011;51601;51.356;12.458;2023-01-19T12:14:08;12.85;;;5.03;;
65033;SDS011;51601;51.356;12.458;2023-01-19T12:18:40;9.15;;;3.35;;
65033;SDS011;51601;51.356;12.458;2023-01-19T12:23:10;10.60;;;4.57;;
65033;SDS011;51601;51.356;12.458;2023-01-19T12:27:44;10.82;;;5.05;;
65033;SDS011;51601;51.356;12.458;2023-01-19T12:32:28;10.40;;;5.20;;
65033;SDS011;51601;51.356;12.458;2023-01-19T12:36:56;10.97;;;5.10;;
65033;SDS011;51601;51.356;12.458;2023-01-19T12:41:25;9.98;;;4.72;;
65033;SDS011;51601;51.356;12.458;2023-01-19T12:45:51;12.05;;;4.88;;
65033;SDS011;51601;51.356;12.458;2023-01-19T12:50:18;9.68;;;4.68;;
65033;SDS011;51601;51.356;12.458;2023-01-19T12:54:49;15.27;;;5.97;;
65033;SDS011;51601;51.356;12.458;2023-01-19T12:59:20;10.52;;;4.78;;
65033;SDS011;51601;51.356;12.458;2023-01-19T13:03:57;10.60;;;4.68;;
65033;SDS011;51601;51.356;12.458;2023-01-19T13:08:27;10.83;;;4.40;;
65033;SDS011;51601;51.356;12.458;2023-01-19T13:13:15;13.02;;;5.28;;
65033;SDS011;51601;51.356;12.458;2023-01-19T13:17:44;12.50;;;5.38;;
65033;SDS011;51601;51.356;12.458;2023-01-19T13:27:25;10.18;;;4.68;;
65033;SDS011;51601;51.356;12.458;2023-01-19T13:31:50;11.38;;;4.88;;
65033;SDS011;51601;51.356;12.458;2023-01-19T13:36:21;10.23;;;4.60;;
65033;SDS011;51601;51.356;12.458;2023-01-19T13:40:49;7.90;;;3.37;;
65033;SDS011;51601;51.356;12.458;2023-01-19T13:45:16;7.80;;;3.28;;
65033;SDS011;51601;51.356;12.458;2023-01-19T13:49:49;9.60;;;3.70;;
65033;SDS011;51601;51.356;12.458;2023-01-19T13:54:17;10.17;;;5.13;;
65033;SDS011;51601;51.356;12.458;2023-01-19T13:58:42;8.63;;;3.70;;
65033;SDS011;51601;51.356;12.458;2023-01-19T14:03:14;9.13;;;4.32;;
65033;SDS011;51601;51.356;12.458;2023-01-19T14:07:42;12.33;;;5.10;;
65033;SDS011;51601;51.356;12.458;2023-01-19T14:12:09;8.65;;;3.50;;
65033;SDS011;51601;51.356;12.458;2023-01-19T14:16:35;9.15;;;2.92;;
65033;SDS011;51601;51.356;12.458;2023-01-19T14:21:01;8.10;;;3.65;;
65033;SDS011;51601;51.356;12.458;2023-01-19T14:25:46;9.73;;;3.83;;
65033;SDS011;51601;51.356;12.458;2023-01-19T14:30:16;7.80;;;3.63;;
65033;SDS011;51601;51.356;12.458;2023-01-19T14:34:47;11.57;;;5.40;;
65033;SDS011;51601;51.356;12.458;2023-01-19T14:39:15;8.63;;;3.80;;
65033;SDS011;51601;51.356;12.458;2023-01-19T14:43:46;10.63;;;4.38;;
65033;SDS011;51601;51.356;12.458;2023-01-19T14:48:11;11.23;;;4.90;;
65033;SDS011;51601;51.356;12.458;2023-01-19T14:52:40;11.27;;;4.67;;
65033;SDS011;51601;51.356;12.458;2023-01-19T14:57:10;10.77;;;4.15;;
65033;SDS011;51601;51.356;12.458;2023-01-19T15:01:39;10.10;;;3.92;;
65033;SDS011;51601;51.356;12.458;2023-01-19T15:06:03;9.02;;;3.92;;
65033;SDS011;51601;51.356;12.458;2023-01-19T15:10:28;7.90;;;3.50;;
65033;SDS011;51601;51.356;12.458;2023-01-19T15:14:54;8.32;;;3.38;;
65033;SDS011;51601;51.356;12.458;2023-01-19T15:19:19;10.95;;;4.40;;
65033;SDS011;51601;51.356;12.458;2023-01-19T15:23:43;10.80;;;4.30;;
65033;SDS011;51601;51.356;12.458;2023-01-19T15:28:09;12.50;;;5.35;;
65033;SDS011;51601;51.356;12.458;2023-01-19T15:32:35;10.18;;;4.22;;
65033;SDS011;51601;51.356;12.458;2023-01-19T15:37:07;9.00;;;4.17;;
65033;SDS011;51601;51.356;12.458;2023-01-19T15:41:32;8.88;;;3.88;;
65033;SDS011;51601;51.356;12.458;2023-01-19T15:46:00;8.60;;;3.88;;
65033;SDS011;51601;51.356;12.458;2023-01-19T15:50:32;16.02;;;4.07;;
65033;SDS011;51601;51.356;12.458;2023-01-19T15:54:58;8.07;;;3.33;;
65033;SDS011;51601;51.356;12.458;2023-01-19T15:59:25;9.10;;;4.15;;
65033;SDS011;51601;51.356;12.458;2023-01-19T16:04:02;9.43;;;3.22;;
65033;SDS011;51601;51.356;12.458;2023-01-19T16:08:40;10.13;;;3.90;;
65033;SDS011;51601;51.356;12.458;2023-01-19T16:13:17;8.95;;;2.80;;
65033;SDS011;51601;51.356;12.458;2023-01-19T16:17:44;7.63;;;3.63;;
65033;SDS011;51601;51.356;12.458;2023-01-19T16:22:08;8.97;;;4.23;;
65033;SDS011;51601;51.356;12.458;2023-01-19T16:26:39;11.75;;;5.25;;
65033;SDS011;51601;51.356;12.458;2023-01-19T16:31:04;8.25;;;4.05;;
65033;SDS011;51601;51.356;12.458;2023-01-19T16:35:31;12.85;;;4.53;;
65033;SDS011;51601;51.356;12.458;2023-01-19T16:39:56;11.97;;;5.20;;
65033;SDS011;51601;51.356;12.458;2023-01-19T16:44:26;10.30;;;4.35;;
65033;SDS011;51601;51.356;12.458;2023-01-19T16:48:52;10.05;;;3.85;;
65033;SDS011;51601;51.356;12.458;2023-01-19T16:53:34;15.53;;;6.77;;
65033;SDS011;51601;51.356;12.458;2023-01-19T16:57:59;9.82;;;4.30;;
65033;SDS011;51601;51.356;12.458;2023-01-19T17:02:38;13.63;;;6.00;;
65033;SDS011;51601;51.356;12.458;2023-01-19T17:07:02;13.27;;;6.27;;
65033;SDS011;51601;51.356;12.458;2023-01-19T17:11:30;12.85;;;6.60;;
65033;SDS011;51601;51.356;12.458;2023-01-19T17:15:58;14.25;;;6.70;;
65033;SDS011;51601;51.356;12.458;2023-01-19T17:20:25;14.88;;;7.15;;
65033;SDS011;51601;51.356;12.458;2023-01-19T17:25:07;13.73;;;6.87;;
65033;SDS011;51601;51.356;12.458;2023-01-19T17:29:52;14.98;;;7.22;;
65033;SDS011;51601;51.356;12.458;2023-01-19T17:34:16;15.55;;;7.18;;
65033;SDS011;51601;51.356;12.458;2023-01-19T17:38:41;13.00;;;6.17;;
65033;SDS011;51601;51.356;12.458;2023-01-19T17:43:06;14.18;;;6.60;;
65033;SDS011;51601;51.356;12.458;2023-01-19T17:47:30;13.77;;;6.78;;
65033;SDS011;51601;51.356;12.458;2023-01-19T17:51:54;16.40;;;7.53;;
65033;SDS011;51601;51.356;12.458;2023-01-19T17:56:20;12.48;;;6.25;;
65033;SDS011;51601;51.356;12.458;2023-01-19T18:00:47;12.48;;;6.38;;
65033;SDS011;51601;51.356;12.458;2023-01-19T18:05:11;15.30;;;8.00;;
65033;SDS011;51601;51.356;12.458;2023-01-19T18:09:35;13.30;;;6.83;;
65033;SDS011;51601;51.356;12.458;2023-01-19T18:14:01;14.00;;;6.80;;
65033;SDS011;51601;51.356;12.458;2023-01-19T18:18:25;15.13;;;7.47;;
65033;SDS011;51601;51.356;12.458;2023-01-19T18:22:50;15.67;;;7.23;;
65033;SDS011;51601;51.356;12.458;2023-01-19T18:27:14;16.15;;;7.43;;
65033;SDS011;51601;51.356;12.458;2023-01-19T18:31:39;14.48;;;7.35;;
65033;SDS011;51601;51.356;12.458;2023-01-19T18:36:04;15.57;;;7.80;;
65033;SDS011;51601;51.356;12.458;2023-01-19T18:40:29;16.08;;;6.97;;
65033;SDS011;51601;51.356;12.458;2023-01-19T18:44:53;9.50;;;4.63;;
65033;SDS011;51601;51.356;12.458;2023-01-19T18:49:20;14.55;;;7.50;;
65033;SDS011;51601;51.356;12.458;2023-01-19T18:53:44;14.73;;;6.63;;
65033;SDS011;51601;51.356;12.458;2023-01-19T18:58:08;15.52;;;6.97;;
65033;SDS011;51601;51.356;12.458;2023-01-19T19:02:27;10.75;;;4.80;;
65033;SDS011;51601;51.356;12.458;2023-01-19T19:06:50;12.73;;;6.37;;
65033;SDS011;51601;51.356;12.458;2023-01-19T19:11:14;15.13;;;7.72;;
65033;SDS011;51601;51.356;12.458;2023-01-19T19:15:39;15.07;;;7.07;;
65033;SDS011;51601;51.356;12.458;2023-01-19T19:20:09;15.87;;;7.40;;
65033;SDS011;51601;51.356;12.458;2023-01-19T19:24:36;11.63;;;5.35;;
65033;SDS011;51601;51.356;12.458;2023-01-19T19:29:03;17.13;;;8.65;;
65033;SDS011;51601;51.356;12.458;2023-01-19T19:33:27;14.23;;;7.25;;
65033;SDS011;51601;51.356;12.458;2023-01-19T19:37:51;19.23;;;8.30;;
65033;SDS011;51601;51.356;12.458;2023-01-19T19:42:20;16.17;;;7.80;;
65033;SDS011;51601;51.356;12.458;2023-01-19T19:46:44;17.50;;;7.20;;
65033;SDS011;51601;51.356;12.458;2023-01-19T19:51:11;17.97;;;8.67;;
65033;SDS011;51601;51.356;12.458;2023-01-19T19:55:40;17.50;;;8.60;;
65033;SDS011;51601;51.356;12.458;2023-01-19T20:00:08;17.65;;;8.70;;
65033;SDS011;51601;51.356;12.458;2023-01-19T20:04:34;20.20;;;9.70;;
65033;SDS011;51601;51.356;12.458;2023-01-19T20:09:10;18.38;;;9.10;;
65033;SDS011;51601;51.356;12.458;2023-01-19T20:13:47;19.63;;;9.63;;
65033;SDS011;51601;51.356;12.458;2023-01-19T20:18:16;19.85;;;9.07;;
65033;SDS011;51601;51.356;12.458;2023-01-19T20:22:40;18.27;;;8.63;;
65033;SDS011;51601;51.356;12.458;2023-01-19T20:27:04;19.92;;;9.23;;
65033;SDS011;51601;51.356;12.458;2023-01-19T20:31:30;22.00;;;9.77;;
65033;SDS011;51601;51.356;12.458;2023-01-19T20:35:57;21.53;;;9.97;;
65033;SDS011;51601;51.356;12.458;2023-01-19T20:40:21;21.08;;;9.70;;
65033;SDS011;51601;51.356;12.458;2023-01-19T20:44:45;18.98;;;9.75;;
65033;SDS011;51601;51.356;12.458;2023-01-19T20:49:10;19.70;;;10.03;;
65033;SDS011;51601;51.356;12.458;2023-01-19T20:53:36;21.00;;;9.85;;
65033;SDS011;51601;51.356;12.458;2023-01-19T20:58:01;20.27;;;10.40;;
65033;SDS011;51601;51.356;12.458;2023-01-19T21:02:25;19.25;;;9.55;;
65033;SDS011;51601;51.356;12.458;2023-01-19T21:06:43;16.17;;;7.43;;
65033;SDS011;51601;51.356;12.458;2023-01-19T21:11:02;20.20;;;9.75;;
65033;SDS011;51601;51.356;12.458;2023-01-19T21:15:22;19.92;;;10.13;;
65033;SDS011;51601;51.356;12.458;2023-01-19T21:19:43;22.77;;;9.67;;
65033;SDS011;51601;51.356;12.458;2023-01-19T21:24:04;20.42;;;9.98;;
65033;SDS011;51601;51.356;12.458;2023-01-19T21:28:24;21.38;;;10.30;;
65033;SDS011;51601;51.356;12.458;2023-01-19T21:32:43;21.97;;;9.93;;
65033;SDS011;51601;51.356;12.458;2023-01-19T21:37:01;19.42;;;9.80;;
65033;SDS011;51601;51.356;12.458;2023-01-19T21:41:23;20.92;;;9.85;;
65033;SDS011;51601;51.356;12.458;2023-01-19T21:45:45;20.90;;;10.20;;
65033;SDS011;51601;51.356;12.458;2023-01-19T21:50:05;18.17;;;8.83;;
65033;SDS011;51601;51.356;12.458;2023-01-19T21:54:26;20.73;;;10.25;;
65033;SDS011;51601;51.356;12.458;2023-01-19T21:58:46;22.73;;;9.73;;
65033;SDS011;51601;51.356;12.458;2023-01-19T22:03:09;20.80;;;10.13;;
65033;SDS011;51601;51.356;12.458;2023-01-19T22:07:26;21.80;;;10.55;;
65033;SDS011;51601;51.356;12.458;2023-01-19T22:11:44;20.67;;;10.18;;
65033;SDS011;51601;51.356;12.458;2023-01-19T22:16:06;19.73;;;9.20;;
65033;SDS011;51601;51.356;12.458;2023-01-19T22:20:36;18.60;;;9.48;;
65033;SDS011;51601;51.356;12.458;2023-01-19T22:24:54;23.70;;;10.15;;
65033;SDS011;51601;51.356;12.458;2023-01-19T22:29:12;21.42;;;10.13;;
65033;SDS011;51601;51.356;12.458;2023-01-19T22:33:33;23.03;;;10.80;;
65033;SDS011;51601;51.356;12.458;2023-01-19T22:37:56;25.95;;;10.10;;
65033;SDS011;51601;51.356;12.458;2023-01-19T22:42:16;22.17;;;9.98;;
65033;SDS011;51601;51.356;12.458;2023-01-19T22:46:36;21.80;;;10.20;;
65033;SDS011;51601;51.356;12.458;2023-01-19T22:50:58;23.23;;;10.45;;
65033;SDS011;51601;51.356;12.458;2023-01-19T22:55:17;21.23;;;9.80;;
65033;SDS011;51601;51.356;12.458;2023-01-19T22:59:40;22.73;;;9.87;;
65033;SDS011;51601;51.356;12.458;2023-01-19T23:03:58;23.88;;;9.90;;
65033;SDS011;51601;51.356;12.458;2023-01-19T23:08:16;20.15;;;9.73;;
65033;SDS011;51601;51.356;12.458;2023-01-19T23:12:39;23.80;;;9.88;;
65033;SDS011;51601;51.356;12.458;2023-01-19T23:17:01;22.43;;;9.70;;
65033;SDS011;51601;51.356;12.458;2023-01-19T23:21:20;22.50;;;9.25;;
65033;SDS011;51601;51.356;12.458;2023-01-19T23:25:40;23.35;;;10.13;;
65033;SDS011;51601;51.356;12.458;2023-01-19T23:30:07;21.43;;;10.17;;
65033;SDS011;51601;51.356;12.458;2023-01-19T23:34:26;23.00;;;10.35;;
65033;SDS011;51601;51.356;12.458;2023-01-19T23:38:46;23.52;;;10.43;;
65033;SDS011;51601;51.356;12.458;2023-01-19T23:43:05;24.87;;;10.30;;
65033;SDS011;51601;51.356;12.458;2023-01-19T23:47:24;21.73;;;10.18;;
65033;SDS011;51601;51.356;12.458;2023-01-19T23:51:44;23.92;;;10.57;;
65033;SDS011;51601;51.356;12.458;2023-01-19T23:56:09;21.75;;;9.70;;
